createdAt,value
2017-07-16T00:00:45.236Z,0
2017-07-16T00:01:44.597Z,0
2017-07-16T00:02:45.234Z,0
2017-07-16T00:03:44.886Z,0
2017-07-16T00:04:45.241Z,0
2017-07-16T00:05:44.898Z,0
2017-07-16T00:06:45.190Z,0
2017-07-16T00:07:44.524Z,0
2017-07-16T00:08:44.874Z,0
2017-07-16T00:09:45.167Z,0
2017-07-16T00:10:44.502Z,0
2017-07-16T00:11:44.822Z,0
2017-07-16T00:12:45.140Z,0
2017-07-16T00:13:44.808Z,0
2017-07-16T00:14:44.798Z,0
2017-07-16T00:15:45.137Z,0
2017-07-16T00:16:44.452Z,0
2017-07-16T00:17:44.446Z,0
2017-07-16T00:18:44.771Z,0
2017-07-16T00:19:44.450Z,0
2017-07-16T00:20:44.420Z,0
2017-07-16T00:21:44.428Z,0
2017-07-16T00:22:44.738Z,0
2017-07-16T00:23:45.080Z,0
2017-07-16T00:24:44.732Z,0
2017-07-16T00:25:44.769Z,0
2017-07-16T00:26:45.353Z,0
2017-07-16T00:27:44.706Z,0
2017-07-16T00:28:45.038Z,0
2017-07-16T00:29:45.044Z,0
2017-07-16T00:30:44.339Z,0
2017-07-16T00:31:44.662Z,0
2017-07-16T00:32:44.337Z,0
2017-07-16T00:33:44.656Z,0
2017-07-16T00:34:44.638Z,0
2017-07-16T00:35:44.669Z,0
2017-07-16T00:36:44.289Z,0
2017-07-16T00:37:44.610Z,0
2017-07-16T00:38:44.292Z,0
2017-07-16T00:39:44.262Z,0
2017-07-16T00:40:44.254Z,0
2017-07-16T00:41:44.269Z,0
2017-07-16T00:42:44.582Z,0
2017-07-16T00:43:44.556Z,0
2017-07-16T00:44:45.205Z,0
2017-07-16T00:45:44.212Z,0
2017-07-16T00:46:44.534Z,0
2017-07-16T00:47:44.221Z,0
2017-07-16T00:48:44.228Z,0
2017-07-16T00:49:44.519Z,0
2017-07-16T00:50:44.844Z,0
2017-07-16T00:51:44.827Z,0
2017-07-16T00:52:44.832Z,0
2017-07-16T00:53:45.152Z,0
2017-07-16T00:54:44.492Z,0
2017-07-16T00:55:45.608Z,0
2017-07-16T00:56:45.116Z,0
2017-07-16T00:57:44.797Z,0
2017-07-16T00:58:44.438Z,0
2017-07-16T00:59:44.773Z,0
2017-07-16T01:00:44.754Z,0
2017-07-16T01:01:44.094Z,0
2017-07-16T01:02:44.425Z,0
2017-07-16T01:03:44.731Z,0
2017-07-16T01:04:44.082Z,0
2017-07-16T01:05:44.743Z,0
2017-07-16T01:06:44.717Z,0
2017-07-16T01:07:44.373Z,0
2017-07-16T01:08:44.034Z,0
2017-07-16T01:09:44.355Z,0
2017-07-16T01:10:44.381Z,0
2017-07-16T01:11:44.682Z,0
2017-07-16T01:12:44.003Z,0
2017-07-16T01:13:44.687Z,0
2017-07-16T01:14:44.659Z,0
2017-07-16T01:15:43.978Z,0
2017-07-16T01:16:44.310Z,0
2017-07-16T01:17:44.326Z,0
2017-07-16T01:18:44.283Z,0
2017-07-16T01:19:44.605Z,0
2017-07-16T01:20:44.597Z,0
2017-07-16T01:21:43.928Z,0
2017-07-16T01:22:44.584Z,0
2017-07-16T01:23:44.904Z,0
2017-07-16T01:24:44.574Z,0
2017-07-16T01:25:43.937Z,0
2017-07-16T01:26:44.223Z,0
2017-07-16T01:27:43.903Z,0
2017-07-16T01:28:44.880Z,0
2017-07-16T01:29:44.196Z,0
2017-07-16T01:30:44.185Z,0
2017-07-16T01:31:44.529Z,0
2017-07-16T01:32:44.193Z,0
2017-07-16T01:33:44.820Z,0
2017-07-16T01:34:44.149Z,0
2017-07-16T01:35:44.164Z,0
2017-07-16T01:36:44.152Z,0
2017-07-16T01:37:44.128Z,0
2017-07-16T01:38:43.793Z,0
2017-07-16T01:39:43.779Z,0
2017-07-16T01:40:44.115Z,0
2017-07-16T01:41:44.112Z,0
2017-07-16T01:42:44.083Z,0
2017-07-16T01:43:44.069Z,0
2017-07-16T01:44:43.748Z,0
2017-07-16T01:45:44.403Z,0
2017-07-16T01:46:44.434Z,0
2017-07-16T01:47:43.908Z,0
2017-07-16T01:48:44.050Z,0
2017-07-16T01:49:44.030Z,0
2017-07-16T01:50:44.375Z,0
2017-07-16T01:51:43.998Z,0
2017-07-16T01:52:43.993Z,0
2017-07-16T01:53:44.635Z,0
2017-07-16T01:54:44.323Z,0
2017-07-16T01:55:43.960Z,0
2017-07-16T01:56:44.294Z,0
2017-07-16T01:57:43.970Z,0
2017-07-16T01:58:43.948Z,0
2017-07-16T01:59:43.941Z,0
2017-07-16T02:00:43.589Z,0
2017-07-16T02:01:44.258Z,0
2017-07-16T02:02:44.567Z,0
2017-07-16T02:03:44.889Z,0
2017-07-16T02:04:43.893Z,0
2017-07-16T02:05:44.414Z,0
2017-07-16T02:06:43.881Z,0
2017-07-16T02:07:43.527Z,0
2017-07-16T02:08:44.197Z,0
2017-07-16T02:09:44.169Z,0
2017-07-16T02:10:43.521Z,0
2017-07-16T02:11:43.816Z,0
2017-07-16T02:12:43.828Z,0
2017-07-16T02:13:44.142Z,0
2017-07-16T02:14:43.812Z,0
2017-07-16T02:15:43.797Z,0
2017-07-16T02:16:43.771Z,0
2017-07-16T02:17:44.094Z,0
2017-07-16T02:18:44.103Z,0
2017-07-16T02:19:44.065Z,0
2017-07-16T02:20:43.430Z,0
2017-07-16T02:21:43.747Z,0
2017-07-16T02:22:44.400Z,0
2017-07-16T02:23:43.412Z,0
2017-07-16T02:24:44.368Z,0
2017-07-16T02:25:43.688Z,0
2017-07-16T02:26:44.011Z,0
2017-07-16T02:27:43.354Z,0
2017-07-16T02:28:43.366Z,0
2017-07-16T02:29:43.659Z,0
2017-07-16T02:30:43.965Z,0
2017-07-16T02:31:43.646Z,0
2017-07-16T02:32:43.669Z,0
2017-07-16T02:33:43.942Z,0
2017-07-16T02:34:43.281Z,0
2017-07-16T02:35:43.593Z,0
2017-07-16T02:36:43.592Z,0
2017-07-16T02:37:43.586Z,0
2017-07-16T02:38:44.552Z,0
2017-07-16T02:39:43.555Z,0
2017-07-16T02:40:43.542Z,0
2017-07-16T02:41:43.885Z,0
2017-07-16T02:42:43.199Z,0
2017-07-16T02:43:43.540Z,0
2017-07-16T02:44:43.509Z,0
2017-07-16T02:45:43.500Z,0
2017-07-16T02:46:43.492Z,0
2017-07-16T02:47:43.822Z,0
2017-07-16T02:48:43.802Z,0
2017-07-16T02:49:43.132Z,0
2017-07-16T02:50:43.450Z,0
2017-07-16T02:51:43.778Z,0
2017-07-16T02:52:43.476Z,0
2017-07-16T02:53:44.089Z,0
2017-07-16T02:54:43.087Z,0
2017-07-16T02:55:43.973Z,0
2017-07-16T02:56:43.727Z,0
2017-07-16T02:57:44.052Z,0
2017-07-16T02:58:43.712Z,0
2017-07-16T02:59:43.085Z,0
2017-07-16T03:00:43.359Z,0
2017-07-16T03:01:43.677Z,0
2017-07-16T03:02:43.995Z,0
2017-07-16T03:03:43.328Z,0
2017-07-16T03:04:42.986Z,0
2017-07-16T03:05:42.999Z,0
2017-07-16T03:06:43.306Z,0
2017-07-16T03:07:43.319Z,0
2017-07-16T03:08:43.280Z,0
2017-07-16T03:09:43.286Z,0
2017-07-16T03:10:44.253Z,5
2017-07-16T03:11:42.921Z,5
2017-07-16T03:12:42.914Z,5
2017-07-16T03:13:43.239Z,5
2017-07-16T03:14:42.904Z,5
2017-07-16T03:15:42.914Z,5
2017-07-16T03:16:43.204Z,5
2017-07-16T03:17:42.865Z,5
2017-07-16T03:18:43.844Z,5
2017-07-16T03:19:43.209Z,10
2017-07-16T03:20:42.849Z,10
2017-07-16T03:21:42.829Z,10
2017-07-16T03:22:42.825Z,10
2017-07-16T03:23:43.465Z,10
2017-07-16T03:24:43.136Z,10
2017-07-16T03:25:43.133Z,10
2017-07-16T03:26:43.805Z,15
2017-07-16T03:27:44.102Z,15
2017-07-16T03:28:42.777Z,15
2017-07-16T03:29:43.407Z,15
2017-07-16T03:30:43.087Z,15
2017-07-16T03:31:43.058Z,15
2017-07-16T03:32:42.718Z,20
2017-07-16T03:33:43.035Z,20
2017-07-16T03:34:42.703Z,20
2017-07-16T03:35:43.051Z,20
2017-07-16T03:36:42.677Z,20
2017-07-16T03:37:43.996Z,25
2017-07-16T03:38:42.986Z,25
2017-07-16T03:39:43.665Z,25
2017-07-16T03:40:42.999Z,25
2017-07-16T03:41:43.299Z,25
2017-07-16T03:42:42.949Z,30
2017-07-16T03:43:43.302Z,30
2017-07-16T03:44:43.595Z,30
2017-07-16T03:45:43.251Z,30
2017-07-16T03:46:43.257Z,30
2017-07-16T03:47:43.247Z,35
2017-07-16T03:48:42.889Z,35
2017-07-16T03:49:43.212Z,35
2017-07-16T03:50:43.236Z,35
2017-07-16T03:51:42.543Z,35
2017-07-16T03:52:42.850Z,40
2017-07-16T03:53:42.852Z,40
2017-07-16T03:54:43.186Z,40
2017-07-16T03:55:42.499Z,40
2017-07-16T03:56:42.817Z,40
2017-07-16T03:57:43.135Z,40
2017-07-16T03:58:43.776Z,45
2017-07-16T03:59:42.494Z,45
2017-07-16T04:00:42.780Z,45
2017-07-16T04:01:42.791Z,45
2017-07-16T04:02:42.759Z,45
2017-07-16T04:03:42.778Z,45
2017-07-16T04:04:43.091Z,45
2017-07-16T04:05:43.389Z,45
2017-07-16T04:06:42.605Z,50
2017-07-16T04:07:42.710Z,50
2017-07-16T04:08:42.373Z,50
2017-07-16T04:09:42.892Z,50
2017-07-16T04:10:42.375Z,50
2017-07-16T04:11:42.675Z,50
2017-07-16T04:12:42.659Z,50
2017-07-16T04:13:42.328Z,50
2017-07-16T04:14:42.643Z,50
2017-07-16T04:15:42.303Z,50
2017-07-16T04:16:42.992Z,50
2017-07-16T04:17:42.285Z,50
2017-07-16T04:18:43.257Z,50
2017-07-16T04:19:42.599Z,50
2017-07-16T04:20:42.651Z,50
2017-07-16T04:21:42.576Z,50
2017-07-16T04:22:42.234Z,55
2017-07-16T04:23:42.573Z,55
2017-07-16T04:24:42.545Z,55
2017-07-16T04:25:42.210Z,55
2017-07-16T04:26:43.029Z,55
2017-07-16T04:27:42.190Z,55
2017-07-16T04:28:42.848Z,55
2017-07-16T04:29:42.856Z,55
2017-07-16T04:30:42.515Z,55
2017-07-16T04:31:42.479Z,60
2017-07-16T04:32:42.800Z,60
2017-07-16T04:33:42.135Z,60
2017-07-16T04:34:42.453Z,60
2017-07-16T04:35:42.802Z,60
2017-07-16T04:36:42.436Z,60
2017-07-16T04:37:42.436Z,60
2017-07-16T04:38:42.426Z,60
2017-07-16T04:39:42.113Z,60
2017-07-16T04:40:42.727Z,60
2017-07-16T04:41:42.397Z,65
2017-07-16T04:42:42.441Z,65
2017-07-16T04:43:42.379Z,65
2017-07-16T04:44:42.380Z,65
2017-07-16T04:45:42.705Z,70
2017-07-16T04:46:42.347Z,70
2017-07-16T04:47:42.335Z,70
2017-07-16T04:48:42.640Z,70
2017-07-16T04:49:42.331Z,75
2017-07-16T04:50:42.314Z,75
2017-07-16T04:51:42.000Z,80
2017-07-16T04:52:41.975Z,80
2017-07-16T04:53:42.601Z,80
2017-07-16T04:54:41.947Z,85
2017-07-16T04:55:42.251Z,90
2017-07-16T04:56:41.918Z,90
2017-07-16T04:57:42.937Z,100
2017-07-16T04:58:42.248Z,105
2017-07-16T04:59:42.549Z,110
2017-07-16T05:00:42.217Z,115
2017-07-16T05:01:42.873Z,115
2017-07-16T05:02:42.189Z,120
2017-07-16T05:03:41.870Z,125
2017-07-16T05:04:42.848Z,125
2017-07-16T05:05:42.165Z,130
2017-07-16T05:06:41.849Z,135
2017-07-16T05:07:42.158Z,135
2017-07-16T05:08:42.174Z,135
2017-07-16T05:09:42.145Z,135
2017-07-16T05:10:42.458Z,130
2017-07-16T05:11:42.106Z,125
2017-07-16T05:12:41.770Z,120
2017-07-16T05:13:42.415Z,115
2017-07-16T05:14:42.149Z,115
2017-07-16T05:15:42.455Z,110
2017-07-16T05:16:42.388Z,110
2017-07-16T05:17:42.721Z,110
2017-07-16T05:18:42.044Z,110
2017-07-16T05:19:42.074Z,115
2017-07-16T05:20:42.356Z,115
2017-07-16T05:21:42.045Z,115
2017-07-16T05:22:42.012Z,115
2017-07-16T05:23:42.335Z,115
2017-07-16T05:24:42.102Z,115
2017-07-16T05:25:41.983Z,120
2017-07-16T05:26:42.305Z,120
2017-07-16T05:27:41.971Z,120
2017-07-16T05:28:41.646Z,125
2017-07-16T05:29:41.949Z,125
2017-07-16T05:30:42.269Z,120
2017-07-16T05:31:41.604Z,120
2017-07-16T05:32:41.963Z,120
2017-07-16T05:33:41.940Z,120
2017-07-16T05:34:41.577Z,125
2017-07-16T05:35:42.233Z,125
2017-07-16T05:36:42.224Z,125
2017-07-16T05:37:41.901Z,125
2017-07-16T05:38:42.212Z,125
2017-07-16T05:39:41.549Z,125
2017-07-16T05:40:41.535Z,125
2017-07-16T05:41:41.868Z,130
2017-07-16T05:42:41.844Z,130
2017-07-16T05:43:42.182Z,130
2017-07-16T05:44:41.524Z,130
2017-07-16T05:45:41.845Z,130
2017-07-16T05:46:41.819Z,130
2017-07-16T05:47:42.485Z,135
2017-07-16T05:48:41.821Z,135
2017-07-16T05:49:41.800Z,135
2017-07-16T05:50:41.780Z,135
2017-07-16T05:51:42.132Z,135
2017-07-16T05:52:41.437Z,130
2017-07-16T05:53:41.791Z,130
2017-07-16T05:54:42.418Z,130
2017-07-16T05:55:42.415Z,130
2017-07-16T05:56:41.756Z,130
2017-07-16T05:57:41.728Z,130
2017-07-16T05:58:41.390Z,130
2017-07-16T05:59:42.397Z,135
2017-07-16T06:00:41.715Z,135
2017-07-16T06:01:42.041Z,140
2017-07-16T06:02:41.726Z,140
2017-07-16T06:03:42.018Z,135
2017-07-16T06:04:41.687Z,135
2017-07-16T06:05:42.336Z,140
2017-07-16T06:06:41.334Z,140
2017-07-16T06:07:41.355Z,145
2017-07-16T06:08:41.980Z,155
2017-07-16T06:09:41.656Z,160
2017-07-16T06:10:41.680Z,165
2017-07-16T06:11:41.638Z,170
2017-07-16T06:12:42.276Z,180
2017-07-16T06:13:41.631Z,185
2017-07-16T06:14:41.287Z,185
2017-07-16T06:15:41.936Z,190
2017-07-16T06:16:41.928Z,185
2017-07-16T06:17:42.572Z,185
2017-07-16T06:18:41.585Z,185
2017-07-16T06:19:42.250Z,185
2017-07-16T06:20:41.578Z,180
2017-07-16T06:21:41.582Z,175
2017-07-16T06:22:41.559Z,170
2017-07-16T06:23:46.374Z,170
2017-07-16T06:24:41.229Z,170
2017-07-16T06:25:41.208Z,170
2017-07-16T06:26:41.530Z,170
2017-07-16T06:27:42.185Z,165
2017-07-16T06:28:41.203Z,165
2017-07-16T06:29:41.196Z,160
2017-07-16T06:30:41.188Z,155
2017-07-16T06:31:41.501Z,155
2017-07-16T06:32:41.185Z,165
2017-07-16T06:33:41.544Z,170
2017-07-16T06:34:41.482Z,180
2017-07-16T06:35:41.482Z,185
2017-07-16T06:36:41.821Z,195
2017-07-16T06:37:41.513Z,200
2017-07-16T06:38:41.156Z,220
2017-07-16T06:39:41.145Z,220
2017-07-16T06:40:41.451Z,230
2017-07-16T06:41:41.779Z,235
2017-07-16T06:42:42.096Z,265
2017-07-16T06:43:41.816Z,325
2017-07-16T06:44:42.091Z,365
2017-07-16T06:45:42.343Z,365
2017-07-16T06:46:41.785Z,410
2017-07-16T06:47:41.416Z,420
2017-07-16T06:48:41.771Z,435
2017-07-16T06:49:42.396Z,500
2017-07-16T06:50:41.416Z,540
2017-07-16T06:51:41.397Z,525
2017-07-16T06:52:41.068Z,495
2017-07-16T06:53:41.062Z,460
2017-07-16T06:54:41.399Z,500
2017-07-16T06:55:41.388Z,480
2017-07-16T06:56:41.389Z,455
2017-07-16T06:57:41.766Z,465
2017-07-16T06:58:41.088Z,540
2017-07-16T06:59:41.384Z,480
2017-07-16T07:00:42.277Z,495
2017-07-16T07:01:41.704Z,500
2017-07-16T07:02:41.422Z,530
2017-07-16T07:03:41.401Z,595
2017-07-16T07:04:41.716Z,485
2017-07-16T07:05:41.064Z,510
2017-07-16T07:06:41.697Z,550
2017-07-16T07:07:41.713Z,595
2017-07-16T07:08:41.401Z,595
2017-07-16T07:09:41.046Z,645
2017-07-16T07:10:41.373Z,625
2017-07-16T07:11:41.070Z,665
2017-07-16T07:12:41.741Z,605
2017-07-16T07:13:41.755Z,630
2017-07-16T07:14:41.067Z,565
2017-07-16T07:15:42.126Z,590
2017-07-16T07:16:41.384Z,640
2017-07-16T07:17:41.386Z,565
2017-07-16T07:18:41.390Z,555
2017-07-16T07:19:41.056Z,460
2017-07-16T07:20:42.049Z,515
2017-07-16T07:21:41.735Z,470
2017-07-16T07:22:41.391Z,580
2017-07-16T07:23:41.756Z,440
2017-07-16T07:24:41.738Z,430
2017-07-16T07:25:41.408Z,450
2017-07-16T07:26:41.416Z,545
2017-07-16T07:27:41.423Z,525
2017-07-16T07:28:41.426Z,435
2017-07-16T07:29:41.762Z,450
2017-07-16T07:30:41.085Z,455
2017-07-16T07:31:41.746Z,475
2017-07-16T07:32:41.088Z,435
2017-07-16T07:33:41.424Z,475
2017-07-16T07:34:41.755Z,515
2017-07-16T07:35:41.749Z,505
2017-07-16T07:36:41.771Z,515
2017-07-16T07:37:41.781Z,485
2017-07-16T07:38:42.118Z,460
2017-07-16T07:39:41.452Z,455
2017-07-16T07:40:41.811Z,520
2017-07-16T07:41:41.121Z,440
2017-07-16T07:42:41.120Z,440
2017-07-16T07:43:41.803Z,390
2017-07-16T07:44:41.794Z,390
2017-07-16T07:45:41.500Z,505
2017-07-16T07:46:41.467Z,460
2017-07-16T07:47:41.472Z,450
2017-07-16T07:48:41.507Z,570
2017-07-16T07:49:41.815Z,485
2017-07-16T07:50:41.477Z,530
2017-07-16T07:51:41.868Z,245
2017-07-16T07:52:41.163Z,270
2017-07-16T07:53:41.502Z,320
2017-07-16T07:54:42.164Z,285
2017-07-16T07:55:41.550Z,295
2017-07-16T07:56:41.512Z,290
2017-07-16T07:57:41.850Z,285
2017-07-16T07:58:41.864Z,265
2017-07-16T07:59:41.864Z,250
2017-07-16T08:00:41.541Z,265
2017-07-16T08:01:41.853Z,245
2017-07-16T08:02:41.584Z,225
2017-07-16T08:03:41.533Z,215
2017-07-16T08:04:41.537Z,200
2017-07-16T08:05:41.227Z,200
2017-07-16T08:06:41.549Z,195
2017-07-16T08:07:42.200Z,195
2017-07-16T08:08:41.885Z,195
2017-07-16T08:09:41.881Z,195
2017-07-16T08:10:41.558Z,200
2017-07-16T08:11:41.568Z,195
2017-07-16T08:12:41.561Z,200
2017-07-16T08:13:41.236Z,195
2017-07-16T08:14:42.109Z,190
2017-07-16T08:15:42.250Z,190
2017-07-16T08:16:41.578Z,190
2017-07-16T08:17:42.236Z,200
2017-07-16T08:18:41.910Z,225
2017-07-16T08:19:41.914Z,230
2017-07-16T08:20:42.015Z,210
2017-07-16T08:21:41.585Z,195
2017-07-16T08:22:41.590Z,195
2017-07-16T08:23:41.916Z,255
2017-07-16T08:24:41.739Z,285
2017-07-16T08:25:41.267Z,290
2017-07-16T08:26:41.622Z,265
2017-07-16T08:27:41.602Z,245
2017-07-16T08:28:41.286Z,225
2017-07-16T08:29:42.274Z,210
2017-07-16T08:30:42.289Z,205
2017-07-16T08:31:41.306Z,210
2017-07-16T08:32:41.633Z,220
2017-07-16T08:33:41.276Z,245
2017-07-16T08:34:41.944Z,250
2017-07-16T08:35:41.965Z,305
2017-07-16T08:36:41.620Z,350
2017-07-16T08:37:41.618Z,350
2017-07-16T08:38:41.610Z,345
2017-07-16T08:39:42.004Z,315
2017-07-16T08:40:41.633Z,315
2017-07-16T08:41:41.674Z,320
2017-07-16T08:42:41.640Z,320
2017-07-16T08:43:41.947Z,290
2017-07-16T08:44:41.312Z,275
2017-07-16T08:45:42.004Z,290
2017-07-16T08:46:41.307Z,270
2017-07-16T08:47:42.306Z,265
2017-07-16T08:48:41.975Z,290
2017-07-16T08:49:41.641Z,330
2017-07-16T08:50:41.985Z,340
2017-07-16T08:51:41.635Z,320
2017-07-16T08:52:42.285Z,250
2017-07-16T08:53:41.289Z,225
2017-07-16T08:54:41.974Z,235
2017-07-16T08:55:41.960Z,255
2017-07-16T08:56:41.644Z,255
2017-07-16T08:57:41.632Z,250
2017-07-16T08:58:41.641Z,250
2017-07-16T08:59:41.627Z,250
2017-07-16T09:00:41.617Z,245
2017-07-16T09:01:42.300Z,250
2017-07-16T09:02:41.635Z,235
2017-07-16T09:03:41.622Z,245
2017-07-16T09:04:41.628Z,245
2017-07-16T09:05:41.957Z,240
2017-07-16T09:06:41.630Z,245
2017-07-16T09:07:41.623Z,255
2017-07-16T09:08:41.637Z,260
2017-07-16T09:09:41.965Z,265
2017-07-16T09:10:41.293Z,280
2017-07-16T09:11:41.623Z,295
2017-07-16T09:12:41.639Z,290
2017-07-16T09:13:42.281Z,280
2017-07-16T09:14:41.957Z,255
2017-07-16T09:15:41.621Z,250
2017-07-16T09:16:41.628Z,240
2017-07-16T09:17:41.970Z,235
2017-07-16T09:18:42.287Z,240
2017-07-16T09:19:42.334Z,240
2017-07-16T09:20:41.630Z,240
2017-07-16T09:21:41.618Z,230
2017-07-16T09:22:42.261Z,220
2017-07-16T09:23:42.069Z,195
2017-07-16T09:24:41.616Z,220
2017-07-16T09:25:41.633Z,215
2017-07-16T09:26:41.304Z,215
2017-07-16T09:27:41.622Z,215
2017-07-16T09:28:41.628Z,220
2017-07-16T09:29:41.616Z,225
2017-07-16T09:30:41.652Z,225
2017-07-16T09:31:41.962Z,215
2017-07-16T09:32:41.621Z,195
2017-07-16T09:33:42.113Z,195
2017-07-16T09:34:42.177Z,205
2017-07-16T09:35:41.842Z,200
2017-07-16T09:36:42.015Z,210
2017-07-16T09:37:41.762Z,215
2017-07-16T09:38:42.433Z,215
2017-07-16T09:39:42.334Z,210
2017-07-16T09:40:42.647Z,205
2017-07-16T09:41:42.584Z,205
2017-07-16T09:42:42.319Z,205
2017-07-16T09:43:42.280Z,210
2017-07-16T09:44:41.748Z,210
2017-07-16T09:45:42.605Z,210
2017-07-16T09:46:42.901Z,220
2017-07-16T09:47:43.445Z,230
2017-07-16T09:48:42.971Z,245
2017-07-16T09:49:42.234Z,255
2017-07-16T09:50:42.643Z,270
2017-07-16T09:51:42.728Z,290
2017-07-16T09:52:42.672Z,305
2017-07-16T09:53:42.010Z,320
2017-07-16T09:54:41.612Z,330
2017-07-16T09:55:41.965Z,320
2017-07-16T09:56:41.306Z,315
2017-07-16T09:57:41.951Z,305
2017-07-16T09:58:41.955Z,295
2017-07-16T09:59:41.306Z,275
2017-07-16T10:00:42.207Z,260
2017-07-16T10:01:41.333Z,265
2017-07-16T10:02:42.133Z,275
2017-07-16T10:03:42.437Z,275
2017-07-16T10:04:42.058Z,310
2017-07-16T10:05:42.001Z,305
2017-07-16T10:06:41.437Z,325
2017-07-16T10:07:41.414Z,340
2017-07-16T10:08:41.460Z,355
2017-07-16T10:09:41.355Z,345
2017-07-16T10:10:42.311Z,340
2017-07-16T10:11:41.719Z,340
2017-07-16T10:12:41.924Z,330
2017-07-16T10:13:41.438Z,330
2017-07-16T10:14:41.730Z,345
2017-07-16T10:15:41.957Z,345
2017-07-16T10:16:41.623Z,360
2017-07-16T10:17:41.970Z,385
2017-07-16T10:18:41.624Z,415
2017-07-16T10:19:41.626Z,425
2017-07-16T10:20:42.283Z,440
2017-07-16T10:21:41.950Z,465
2017-07-16T10:22:41.311Z,480
2017-07-16T10:23:42.288Z,490
2017-07-16T10:24:42.438Z,440
2017-07-16T10:25:41.293Z,430
2017-07-16T10:26:41.973Z,455
2017-07-16T10:27:41.656Z,445
2017-07-16T10:28:41.294Z,410
2017-07-16T10:29:41.963Z,410
2017-07-16T10:30:41.962Z,445
2017-07-16T10:31:41.980Z,485
2017-07-16T10:32:41.956Z,515
2017-07-16T10:33:41.641Z,485
2017-07-16T10:34:41.647Z,465
2017-07-16T10:35:41.637Z,430
2017-07-16T10:36:41.300Z,395
2017-07-16T10:37:41.648Z,330
2017-07-16T10:38:41.630Z,290
2017-07-16T10:39:41.635Z,290
2017-07-16T10:40:41.306Z,300
2017-07-16T10:41:41.326Z,295
2017-07-16T10:42:42.303Z,290
2017-07-16T10:43:41.960Z,300
2017-07-16T10:44:41.308Z,325
2017-07-16T10:45:41.661Z,350
2017-07-16T10:46:41.330Z,380
2017-07-16T10:47:41.651Z,400
2017-07-16T10:48:41.970Z,425
2017-07-16T10:49:41.986Z,405
2017-07-16T10:50:41.319Z,395
2017-07-16T10:51:41.639Z,370
2017-07-16T10:52:41.990Z,325
2017-07-16T10:53:41.659Z,315
2017-07-16T10:54:41.972Z,340
2017-07-16T10:55:41.992Z,335
2017-07-16T10:56:41.656Z,330
2017-07-16T10:57:42.015Z,340
2017-07-16T10:58:41.989Z,365
2017-07-16T10:59:41.653Z,360
2017-07-16T11:00:41.994Z,365
2017-07-16T11:01:41.998Z,390
2017-07-16T11:02:41.650Z,395
2017-07-16T11:03:41.979Z,380
2017-07-16T11:04:41.668Z,360
2017-07-16T11:05:41.992Z,325
2017-07-16T11:06:41.662Z,290
2017-07-16T11:07:41.680Z,270
2017-07-16T11:08:41.326Z,265
2017-07-16T11:09:41.663Z,265
2017-07-16T11:10:41.328Z,270
2017-07-16T11:11:41.332Z,260
2017-07-16T11:12:41.663Z,270
2017-07-16T11:13:41.675Z,305
2017-07-16T11:14:41.662Z,345
2017-07-16T11:15:41.674Z,380
2017-07-16T11:16:41.662Z,400
2017-07-16T11:17:41.344Z,440
2017-07-16T11:18:41.671Z,510
2017-07-16T11:19:41.993Z,540
2017-07-16T11:20:41.334Z,565
2017-07-16T11:21:41.336Z,565
2017-07-16T11:22:41.990Z,545
2017-07-16T11:23:44.274Z,510
2017-07-16T11:24:41.335Z,505
2017-07-16T11:25:42.001Z,515
2017-07-16T11:26:41.664Z,505
2017-07-16T11:27:42.005Z,505
2017-07-16T11:28:42.018Z,515
2017-07-16T11:29:42.338Z,525
2017-07-16T11:30:41.360Z,525
2017-07-16T11:31:42.359Z,505
2017-07-16T11:32:42.019Z,510
2017-07-16T11:33:42.020Z,480
2017-07-16T11:34:42.668Z,465
2017-07-16T11:35:41.346Z,455
2017-07-16T11:36:41.358Z,475
2017-07-16T11:37:41.698Z,545
2017-07-16T11:38:41.677Z,565
2017-07-16T11:39:42.023Z,580
2017-07-16T11:40:42.039Z,600
2017-07-16T11:41:42.012Z,650
2017-07-16T11:42:41.678Z,680
2017-07-16T11:43:42.007Z,690
2017-07-16T11:44:41.683Z,670
2017-07-16T11:45:42.359Z,665
2017-07-16T11:46:42.006Z,670
2017-07-16T11:47:42.019Z,660
2017-07-16T11:48:42.017Z,650
2017-07-16T11:49:41.719Z,640
2017-07-16T11:50:42.033Z,640
2017-07-16T11:51:42.038Z,640
2017-07-16T11:52:41.389Z,635
2017-07-16T11:53:42.681Z,640
2017-07-16T11:54:41.386Z,645
2017-07-16T11:55:42.024Z,630
2017-07-16T11:56:41.695Z,630
2017-07-16T11:57:42.380Z,625
2017-07-16T11:58:41.728Z,610
2017-07-16T11:59:41.387Z,580
2017-07-16T12:00:41.381Z,555
2017-07-16T12:01:42.385Z,535
2017-07-16T12:02:42.035Z,510
2017-07-16T12:03:42.390Z,495
2017-07-16T12:04:41.723Z,470
2017-07-16T12:05:41.382Z,455
2017-07-16T12:06:42.468Z,430
2017-07-16T12:07:42.070Z,395
2017-07-16T12:08:41.431Z,360
2017-07-16T12:09:41.392Z,335
2017-07-16T12:10:41.395Z,335
2017-07-16T12:11:41.395Z,315
2017-07-16T12:12:41.398Z,305
2017-07-16T12:13:41.752Z,330
2017-07-16T12:14:42.062Z,360
2017-07-16T12:15:42.079Z,385
2017-07-16T12:16:41.763Z,405
2017-07-16T12:17:41.402Z,410
2017-07-16T12:18:42.070Z,400
2017-07-16T12:19:41.411Z,400
2017-07-16T12:20:42.741Z,425
2017-07-16T12:21:41.739Z,430
2017-07-16T12:22:41.418Z,430
2017-07-16T12:23:41.740Z,420
2017-07-16T12:24:41.416Z,415
2017-07-16T12:25:42.074Z,440
2017-07-16T12:26:42.071Z,460
2017-07-16T12:27:42.075Z,440
2017-07-16T12:28:41.744Z,415
2017-07-16T12:29:42.075Z,410
2017-07-16T12:30:41.778Z,405
2017-07-16T12:31:41.751Z,410
2017-07-16T12:32:42.097Z,415
2017-07-16T12:33:41.772Z,410
2017-07-16T12:34:41.435Z,405
2017-07-16T12:35:41.767Z,410
2017-07-16T12:36:41.753Z,435
2017-07-16T12:37:41.756Z,470
2017-07-16T12:38:41.770Z,450
2017-07-16T12:39:42.109Z,450
2017-07-16T12:40:42.114Z,455
2017-07-16T12:41:42.092Z,455
2017-07-16T12:42:42.143Z,455
2017-07-16T12:43:42.107Z,460
2017-07-16T12:44:41.814Z,475
2017-07-16T12:45:41.778Z,485
2017-07-16T12:46:42.462Z,495
2017-07-16T12:47:42.121Z,505
2017-07-16T12:48:41.788Z,510
2017-07-16T12:49:42.449Z,510
2017-07-16T12:50:41.445Z,510
2017-07-16T12:51:42.112Z,505
2017-07-16T12:52:41.840Z,500
2017-07-16T12:53:42.456Z,475
2017-07-16T12:54:41.789Z,445
2017-07-16T12:55:42.451Z,405
2017-07-16T12:56:42.119Z,365
2017-07-16T12:57:41.793Z,335
2017-07-16T12:58:41.810Z,325
2017-07-16T12:59:42.143Z,305
2017-07-16T13:00:41.481Z,305
2017-07-16T13:01:41.460Z,295
2017-07-16T13:02:42.486Z,310
2017-07-16T13:03:42.143Z,320
2017-07-16T13:04:41.815Z,320
2017-07-16T13:05:41.810Z,320
2017-07-16T13:06:42.139Z,325
2017-07-16T13:07:42.525Z,335
2017-07-16T13:08:41.821Z,345
2017-07-16T13:09:42.483Z,355
2017-07-16T13:10:41.489Z,340
2017-07-16T13:11:41.817Z,345
2017-07-16T13:12:41.814Z,370
2017-07-16T13:13:41.830Z,400
2017-07-16T13:14:41.830Z,425
2017-07-16T13:15:41.484Z,440
2017-07-16T13:16:41.837Z,465
2017-07-16T13:17:42.151Z,455
2017-07-16T13:18:42.482Z,435
2017-07-16T13:19:42.157Z,415
2017-07-16T13:20:41.509Z,405
2017-07-16T13:21:42.485Z,420
2017-07-16T13:22:42.498Z,455
2017-07-16T13:23:41.501Z,460
2017-07-16T13:24:41.868Z,450
2017-07-16T13:25:41.870Z,440
2017-07-16T13:26:42.177Z,450
2017-07-16T13:27:41.859Z,470
2017-07-16T13:28:41.836Z,495
2017-07-16T13:29:41.838Z,530
2017-07-16T13:30:41.512Z,535
2017-07-16T13:31:41.555Z,535
2017-07-16T13:32:42.509Z,530
2017-07-16T13:33:42.176Z,520
2017-07-16T13:34:42.186Z,490
2017-07-16T13:35:41.852Z,490
2017-07-16T13:36:42.211Z,495
2017-07-16T13:37:41.870Z,500
2017-07-16T13:38:41.548Z,515
2017-07-16T13:39:42.541Z,510
2017-07-16T13:40:41.550Z,520
2017-07-16T13:41:42.524Z,520
2017-07-16T13:42:41.551Z,525
2017-07-16T13:43:42.524Z,525
2017-07-16T13:44:42.206Z,530
2017-07-16T13:45:41.878Z,560
2017-07-16T13:46:41.562Z,565
2017-07-16T13:47:41.878Z,560
2017-07-16T13:48:41.889Z,545
2017-07-16T13:49:41.884Z,550
2017-07-16T13:50:41.553Z,545
2017-07-16T13:51:41.890Z,550
2017-07-16T13:52:41.899Z,540
2017-07-16T13:53:42.546Z,520
2017-07-16T13:54:41.911Z,510
2017-07-16T13:55:41.894Z,495
2017-07-16T13:56:41.930Z,470
2017-07-16T13:57:42.569Z,470
2017-07-16T13:58:42.240Z,470
2017-07-16T13:59:42.236Z,470
2017-07-16T14:00:41.911Z,480
2017-07-16T14:01:41.917Z,485
2017-07-16T14:02:42.255Z,490
2017-07-16T14:03:41.952Z,490